createdAt,value
2019-03-05T00:00:46.497Z,99474.56
2019-03-05T00:03:15.966Z,99470.67
2019-03-05T00:05:43.907Z,99459.41
2019-03-05T00:08:11.403Z,99458.63
2019-03-05T00:10:39.060Z,99462.34
2019-03-05T00:13:11.518Z,99465.13
2019-03-05T00:15:39.148Z,99465.94
2019-03-05T00:18:06.834Z,99468.72
2019-03-05T00:20:34.526Z,99461.20
2019-03-05T00:23:03.422Z,99477.83
2019-03-05T00:25:32.714Z,99476.37
2019-03-05T00:28:05.810Z,99476.05
2019-03-05T00:30:53.878Z,99472.14
2019-03-05T00:34:01.544Z,99465.63
2019-03-05T00:36:58.586Z,99475.70
2019-03-05T00:40:01.574Z,99464.47
2019-03-05T00:43:12.012Z,99471.80
2019-03-05T00:46:34.660Z,99481.41
2019-03-05T00:50:00.700Z,99472.63
2019-03-05T00:53:02.111Z,99473.61
2019-03-05T00:56:10.475Z,99468.53
2019-03-05T00:59:18.427Z,99470.16
2019-03-05T01:02:45.277Z,99473.44
2019-03-05T01:05:35.459Z,99470.83
2019-03-05T01:08:03.714Z,99463.66
2019-03-05T01:10:31.620Z,99467.23
2019-03-05T01:13:00.450Z,99463.66
2019-03-05T01:15:29.329Z,99466.77
2019-03-05T01:17:57.258Z,99463.32
2019-03-05T01:20:27.337Z,99462.69
2019-03-05T01:22:59.512Z,99459.59
2019-03-05T01:25:31.259Z,99467.73
2019-03-05T01:27:59.312Z,99466.75
2019-03-05T01:30:36.951Z,99465.77
2019-03-05T01:33:09.628Z,99473.91
2019-03-05T01:35:48.493Z,99479.12
2019-03-05T01:38:22.234Z,99470.32
2019-03-05T01:41:01.560Z,99479.62
2019-03-05T01:43:37.111Z,99477.34
2019-03-05T01:46:08.101Z,99478.64
2019-03-05T01:48:36.598Z,99454.20
2019-03-05T01:51:10.348Z,99447.02
2019-03-05T01:53:40.603Z,99465.76
2019-03-05T01:56:14.313Z,99460.72
2019-03-05T01:59:04.840Z,99462.36
2019-03-05T02:01:40.741Z,99454.70
2019-03-05T02:04:33.257Z,99451.59
2019-03-05T02:07:13.317Z,99447.68
2019-03-05T02:09:47.072Z,99443.45
2019-03-05T02:12:17.882Z,99447.04
2019-03-05T02:14:45.312Z,99444.60
2019-03-05T02:17:13.691Z,99441.19
2019-03-05T02:19:49.226Z,99442.00
2019-03-05T02:22:40.180Z,99448.33
2019-03-05T02:25:39.141Z,99449.98
2019-03-05T02:29:03.940Z,99446.22
2019-03-05T02:32:46.986Z,99449.81
2019-03-05T02:35:44.245Z,99458.27
2019-03-05T02:39:38.611Z,99447.52
2019-03-05T02:42:43.566Z,99456.66
2019-03-05T02:46:28.774Z,99454.87
2019-03-05T02:50:14.533Z,99468.05
2019-03-05T02:52:54.526Z,99477.18
2019-03-05T02:56:07.936Z,99467.09
2019-03-05T02:58:34.315Z,99464.62
2019-03-05T03:01:13.053Z,99464.96
2019-03-05T03:03:43.937Z,99460.41
2019-03-05T03:06:15.428Z,99458.77
2019-03-05T03:08:43.747Z,99457.14
2019-03-05T03:11:11.369Z,99455.98
2019-03-05T03:13:39.042Z,99455.67
2019-03-05T03:16:06.724Z,99450.45
2019-03-05T03:18:34.221Z,99453.06
2019-03-05T03:21:02.017Z,99454.22
2019-03-05T03:23:30.680Z,99451.92
2019-03-05T03:25:58.300Z,99471.46
2019-03-05T03:28:25.999Z,99471.46
2019-03-05T03:30:53.887Z,99478.33
2019-03-05T03:33:21.910Z,99473.25
2019-03-05T03:35:53.107Z,99464.80
2019-03-05T03:38:20.918Z,99472.45
2019-03-05T03:40:49.729Z,99471.00
2019-03-05T03:43:17.645Z,99463.66
2019-03-05T03:45:45.616Z,99460.56
2019-03-05T03:48:13.464Z,99453.08
2019-03-05T03:50:41.315Z,99446.39
2019-03-05T03:53:09.068Z,99448.19
2019-03-05T05:54:01.475Z,99508.14
2019-03-05T05:56:29.825Z,99509.91
2019-03-05T05:58:58.995Z,99511.41
2019-03-05T06:01:28.368Z,99513.52
2019-03-05T06:03:56.519Z,99513.50
2019-03-05T06:06:24.575Z,99508.97
2019-03-05T06:08:53.110Z,99517.27
2019-03-05T06:11:21.199Z,99511.25
2019-03-05T06:13:49.282Z,99519.22
2019-03-05T06:16:17.324Z,99517.26
2019-03-05T06:18:46.621Z,99517.93
2019-03-05T06:21:14.675Z,99512.05
2019-03-05T06:23:42.748Z,99512.05
2019-03-05T06:26:10.833Z,99518.72
2019-03-05T06:28:38.909Z,99518.41
2019-03-05T06:31:07.069Z,99518.09
2019-03-05T06:33:36.353Z,99529.98
2019-03-05T06:36:05.713Z,99526.07
2019-03-05T06:38:35.493Z,99519.56
2019-03-05T06:41:04.782Z,99522.48
2019-03-05T06:43:38.892Z,99533.56
2019-03-05T06:46:06.950Z,99535.51
2019-03-05T06:48:35.013Z,99535.04
2019-03-05T06:51:03.128Z,99553.95
2019-03-05T06:53:31.229Z,99558.52
2019-03-05T06:55:59.341Z,99553.94
2019-03-05T06:58:27.431Z,99571.39
2019-03-05T07:00:57.113Z,99570.73
2019-03-05T07:03:25.136Z,99568.13
2019-03-05T07:06:48.260Z,99573.98
2019-03-05T07:10:21.718Z,99578.56
2019-03-05T07:13:03.471Z,99569.59
2019-03-05T07:16:36.989Z,99570.42
2019-03-05T07:19:36.964Z,99580.85
2019-03-05T07:22:56.159Z,99578.06
2019-03-05T07:25:25.184Z,99587.19
2019-03-05T07:27:57.051Z,99597.48
2019-03-05T07:30:26.187Z,99593.40
2019-03-05T07:32:56.421Z,99593.55
2019-03-05T07:35:25.365Z,99594.20
2019-03-05T07:37:53.656Z,99593.38
2019-03-05T07:40:21.715Z,99595.01
2019-03-05T07:42:51.072Z,99600.41
2019-03-05T07:45:19.142Z,99600.58
2019-03-05T07:47:47.211Z,99602.36
2019-03-05T07:50:15.256Z,99601.70
2019-03-05T07:52:43.417Z,99599.11
2019-03-05T07:55:14.533Z,99609.53
2019-03-05T07:57:42.752Z,99613.95
2019-03-05T08:00:21.306Z,99611.48
2019-03-05T08:02:49.380Z,99608.56
2019-03-05T08:05:17.752Z,99609.39
2019-03-05T08:07:46.269Z,99610.81
2019-03-05T08:10:30.092Z,99608.70
2019-03-05T08:13:23.259Z,99599.23
2019-03-05T08:16:08.133Z,99596.94
2019-03-05T08:18:36.173Z,99602.31
2019-03-05T08:21:04.967Z,99598.72
2019-03-05T08:23:34.577Z,99600.98
2019-03-05T08:26:02.615Z,99595.13
2019-03-05T08:28:30.715Z,99593.80
2019-03-05T08:30:58.736Z,99588.22
2019-03-05T08:33:28.877Z,99588.05
2019-03-05T08:35:56.927Z,99587.52
2019-03-05T08:38:25.125Z,99583.73
2019-03-05T08:40:55.960Z,99586.38
2019-03-05T08:43:24.178Z,99583.58
2019-03-05T08:45:52.523Z,99577.05
2019-03-05T08:48:20.638Z,99582.59
2019-03-05T08:50:48.691Z,99578.98
2019-03-05T08:53:16.777Z,99583.55
2019-03-05T08:55:44.817Z,99593.19
2019-03-05T08:58:12.962Z,99592.37
2019-03-05T09:00:41.000Z,99590.56
2019-03-05T09:03:09.215Z,99576.33
2019-03-05T09:05:37.396Z,99585.30
2019-03-05T09:08:05.551Z,99576.95
2019-03-05T09:10:34.375Z,99571.72
2019-03-05T09:13:04.222Z,99573.48
2019-03-05T09:15:32.289Z,99573.48
2019-03-05T09:18:00.701Z,99574.95
2019-03-05T09:20:30.484Z,99573.65
2019-03-05T09:22:58.506Z,99572.84
2019-03-05T09:25:26.559Z,99572.17
2019-03-05T09:27:55.854Z,99571.05
2019-03-05T09:30:24.049Z,99568.43
2019-03-05T09:32:52.186Z,99561.56
2019-03-05T09:35:20.260Z,99553.68
2019-03-05T09:37:48.284Z,99557.59
2019-03-05T09:40:19.004Z,99558.05
2019-03-05T09:42:47.259Z,99562.27
2019-03-05T09:45:16.709Z,99558.15
2019-03-05T09:47:44.785Z,99556.48
2019-03-05T09:50:14.910Z,99564.81
2019-03-05T09:52:54.399Z,99564.45
2019-03-05T09:55:18.105Z,99565.73
2019-03-05T09:57:48.419Z,99558.52
2019-03-05T10:00:18.265Z,99557.03
2019-03-05T10:02:46.440Z,99557.33
2019-03-05T10:05:15.354Z,99551.91
2019-03-05T10:07:44.007Z,99565.84
2019-03-05T10:10:16.061Z,99551.78
2019-03-05T10:12:44.251Z,99543.80
2019-03-05T10:15:15.932Z,99550.47
2019-03-05T10:17:43.981Z,99548.83
2019-03-05T10:20:15.635Z,99555.81
2019-03-05T10:22:44.833Z,99556.79
2019-03-05T10:25:15.817Z,99564.77
2019-03-05T10:27:44.161Z,99569.13
2019-03-05T10:30:25.412Z,99568.44
2019-03-05T10:32:55.123Z,99569.64
2019-03-05T10:35:25.418Z,99574.77
2019-03-05T10:37:56.053Z,99568.90
2019-03-05T10:40:27.447Z,99571.70
2019-03-05T10:42:55.716Z,99567.72
2019-03-05T10:45:24.921Z,99561.84
2019-03-05T10:47:53.367Z,99562.16
2019-03-05T10:50:24.392Z,99555.12
2019-03-05T10:52:52.482Z,99554.62
2019-03-05T10:55:26.278Z,99541.53
2019-03-05T10:57:50.786Z,99547.50
2019-03-05T11:00:28.598Z,99539.13
2019-03-05T11:02:57.042Z,99546.09
2019-03-05T11:05:27.925Z,99535.04
2019-03-05T11:07:57.469Z,99538.26
2019-03-05T11:10:28.145Z,99539.72
2019-03-05T11:12:56.646Z,99517.72
2019-03-05T11:15:27.642Z,99529.34
2019-03-05T11:17:56.289Z,99530.97
2019-03-05T11:20:25.043Z,99530.16
2019-03-05T11:22:53.212Z,99512.45
2019-03-05T11:25:22.796Z,99512.27
2019-03-05T11:27:50.868Z,99509.23
2019-03-05T11:30:35.369Z,99512.59
2019-03-05T11:32:56.087Z,99497.13
2019-03-05T11:35:26.845Z,99494.86
2019-03-05T11:37:54.971Z,99501.06
2019-03-05T11:40:23.295Z,99503.34
2019-03-05T11:42:53.370Z,99504.15
2019-03-05T11:45:24.274Z,99507.34
2019-03-05T11:47:52.380Z,99502.25
2019-03-05T11:50:21.023Z,99512.73
2019-03-05T11:52:49.331Z,99510.34
2019-03-05T11:55:19.704Z,99508.06
2019-03-05T11:57:47.766Z,99513.81
2019-03-05T12:00:23.707Z,99518.55
2019-03-05T12:02:52.889Z,99510.34
2019-03-05T12:05:22.072Z,99506.48
2019-03-05T12:07:50.313Z,99510.27
2019-03-05T12:10:19.306Z,99512.04
2019-03-05T12:12:52.776Z,99508.80
2019-03-05T12:15:21.009Z,99500.44
2019-03-05T12:17:49.486Z,99507.80
2019-03-05T12:20:17.548Z,99508.92
2019-03-05T12:22:45.689Z,99500.23
2019-03-05T12:25:15.413Z,99492.48
2019-03-05T12:27:43.451Z,99501.55
2019-03-05T12:30:18.268Z,99487.94
2019-03-05T12:32:46.329Z,99493.38
2019-03-05T12:35:14.507Z,99489.94
2019-03-05T12:38:00.100Z,99486.62
2019-03-05T12:40:28.380Z,99482.69
2019-03-05T12:42:57.590Z,99483.50
2019-03-05T12:45:25.651Z,99478.20
2019-03-05T12:47:53.713Z,99468.53
2019-03-05T12:50:22.200Z,99461.16
2019-03-05T12:52:50.687Z,99459.84
2019-03-05T12:55:20.565Z,99464.78
2019-03-05T12:57:50.457Z,99463.98
2019-03-05T13:00:20.405Z,99470.34
2019-03-05T13:02:49.173Z,99467.22
2019-03-05T13:05:17.869Z,99486.58
2019-03-05T13:07:46.038Z,99474.77
2019-03-05T13:10:19.800Z,99489.01
2019-03-05T13:12:47.836Z,99492.06
2019-03-05T13:15:22.718Z,99480.89
2019-03-05T13:17:51.549Z,99486.48
2019-03-05T13:20:22.498Z,99488.49
2019-03-05T13:22:52.236Z,99475.43
2019-03-05T13:25:24.219Z,99474.50
2019-03-05T13:27:51.374Z,99464.44
2019-03-05T13:30:22.099Z,99476.81
2019-03-05T13:32:53.970Z,99483.74
2019-03-05T13:35:25.329Z,99474.83
2019-03-05T13:37:52.348Z,99468.45
2019-03-05T13:40:25.257Z,99490.80
2019-03-05T13:42:53.779Z,99495.45
2019-03-05T13:45:23.880Z,99489.45
2019-03-05T13:48:03.407Z,99491.37
2019-03-05T13:51:19.607Z,99485.88
2019-03-05T13:54:25.671Z,99491.49
2019-03-05T13:58:16.844Z,99492.72
2019-03-05T14:00:44.929Z,99497.41
2019-03-05T14:03:43.745Z,99499.27
2019-03-05T14:07:00.854Z,99500.53
2019-03-05T14:09:27.476Z,99485.80
2019-03-05T14:11:55.549Z,99489.99
2019-03-05T14:14:28.868Z,99485.31
2019-03-05T14:17:17.290Z,99479.91
2019-03-05T14:19:45.528Z,99485.34
2019-03-05T14:22:15.321Z,99478.07
2019-03-05T14:24:43.330Z,99484.74
2019-03-05T14:27:11.387Z,99475.69
2019-03-05T14:29:39.515Z,99483.67
2019-03-05T14:32:08.317Z,99494.78
2019-03-05T14:34:36.515Z,99488.55
2019-03-05T14:37:04.996Z,99500.78
2019-03-05T14:39:34.687Z,99499.67
2019-03-05T14:42:06.271Z,99502.80
2019-03-05T14:44:39.785Z,99507.11
2019-03-05T14:47:05.630Z,99504.31
2019-03-05T14:49:34.414Z,99493.17
2019-03-05T14:52:03.337Z,99496.60
2019-03-05T14:54:31.470Z,99503.31
2019-03-05T14:57:00.670Z,99506.34
2019-03-05T14:59:29.118Z,99510.59
2019-03-05T15:01:58.644Z,99517.29
2019-03-05T15:04:26.700Z,99519.15
2019-03-05T15:06:54.789Z,99520.46
2019-03-05T15:09:22.851Z,99529.45
2019-03-05T15:11:50.911Z,99523.70
2019-03-05T15:14:19.484Z,99539.27
2019-03-05T15:16:47.672Z,99543.20
2019-03-05T15:19:21.313Z,99558.77
2019-03-05T15:21:46.126Z,99577.17
2019-03-05T15:24:14.313Z,99584.75
2019-03-05T15:26:42.539Z,99598.59
2019-03-05T15:29:10.636Z,99603.41
2019-03-05T15:31:38.795Z,99615.02
2019-03-05T15:34:07.617Z,99611.70
2019-03-05T15:36:35.839Z,99611.34
2019-03-05T15:39:05.333Z,99609.36
2019-03-05T15:41:35.388Z,99610.92
2019-03-05T15:44:03.777Z,99603.18
2019-03-05T15:46:32.579Z,99602.09
2019-03-05T15:49:01.041Z,99597.89
2019-03-05T15:51:29.504Z,99607.83
2019-03-05T15:53:58.410Z,99616.48
2019-03-05T15:56:26.645Z,99609.52
2019-03-05T15:58:54.953Z,99607.33
2019-03-05T16:01:23.116Z,99599.88
2019-03-05T16:03:52.557Z,99605.37
2019-03-05T16:06:20.717Z,99606.95
2019-03-05T16:08:49.110Z,99610.12
2019-03-05T16:11:17.295Z,99610.05
2019-03-05T16:13:47.430Z,99608.46
2019-03-05T16:16:18.343Z,99618.22
2019-03-05T16:18:45.743Z,99611.20
2019-03-05T16:21:13.792Z,99612.39
2019-03-05T16:23:41.872Z,99622.23
2019-03-05T16:26:10.026Z,99621.48
2019-03-05T16:28:39.302Z,99620.83
2019-03-05T16:31:27.115Z,99625.14
2019-03-05T16:34:02.017Z,99622.55
2019-03-05T16:36:40.786Z,99635.73
2019-03-05T16:39:42.233Z,99637.89
2019-03-05T16:42:39.190Z,99634.17
2019-03-05T16:45:23.480Z,99634.45
2019-03-05T16:48:23.540Z,99650.12
2019-03-05T16:51:09.214Z,99649.39
2019-03-05T16:54:03.003Z,99659.92
2019-03-05T16:56:46.956Z,99684.20
2019-03-05T16:59:49.743Z,99684.70
2019-03-05T17:02:40.737Z,99685.04
2019-03-05T17:05:25.818Z,99675.30
2019-03-05T17:08:19.089Z,99678.75
2019-03-05T17:11:13.053Z,99675.19
2019-03-05T17:13:41.428Z,99678.95
2019-03-05T17:16:09.698Z,99676.52
2019-03-05T17:18:38.616Z,99680.31
2019-03-05T17:21:06.793Z,99684.73
2019-03-05T17:23:37.606Z,99691.92
2019-03-05T17:26:06.098Z,99701.09
2019-03-05T17:28:35.273Z,99701.59
2019-03-05T17:31:03.553Z,99696.53
2019-03-05T17:33:33.015Z,99704.89
2019-03-05T17:36:02.325Z,99709.31
2019-03-05T17:38:30.896Z,99715.69
2019-03-05T17:40:59.121Z,99725.20
2019-03-05T17:43:27.249Z,99728.63
2019-03-05T17:45:55.881Z,99720.43
2019-03-05T17:48:24.467Z,99725.20
2019-03-05T17:50:53.814Z,99722.23
2019-03-05T17:53:23.136Z,99728.47
2019-03-05T17:55:51.656Z,99736.00
2019-03-05T17:58:20.106Z,99732.13
2019-03-05T18:00:48.685Z,99736.75
2019-03-05T18:03:16.988Z,99731.07
2019-03-05T18:05:45.170Z,99743.89
2019-03-05T18:08:13.635Z,99741.45
2019-03-05T18:10:41.760Z,99745.88
2019-03-05T18:13:10.065Z,99749.30
2019-03-05T18:15:39.339Z,99744.70
2019-03-05T18:18:07.428Z,99744.03
2019-03-05T18:20:35.908Z,99739.12
2019-03-05T18:23:04.130Z,99739.97
2019-03-05T18:25:35.232Z,99742.09
2019-03-05T18:28:03.595Z,99740.28
2019-03-05T18:30:31.677Z,99745.02
2019-03-05T18:33:00.007Z,99754.17
2019-03-05T18:35:28.508Z,99754.17
2019-03-05T18:37:56.689Z,99756.80
2019-03-05T18:40:25.058Z,99750.43
2019-03-05T18:42:53.240Z,99754.00
2019-03-05T18:45:23.509Z,99756.30
2019-03-05T18:47:51.633Z,99760.41
2019-03-05T18:50:20.145Z,99751.74
2019-03-05T18:52:49.643Z,99749.30
2019-03-05T18:55:18.874Z,99758.78
2019-03-05T18:57:47.107Z,99751.92
2019-03-05T19:00:18.696Z,99738.35
2019-03-05T19:02:46.799Z,99739.20
2019-03-05T19:05:16.122Z,99742.95
2019-03-05T19:07:46.858Z,99745.92
2019-03-05T19:10:16.826Z,99742.32
2019-03-05T19:12:44.864Z,99748.41
2019-03-05T19:15:17.136Z,99742.86
2019-03-05T19:17:47.093Z,99744.16
2019-03-05T19:20:18.313Z,99735.83
2019-03-05T19:22:47.351Z,99739.78
2019-03-05T19:25:18.800Z,99734.20
2019-03-05T19:27:48.652Z,99730.95
2019-03-05T19:30:20.666Z,99739.28
2019-03-05T19:32:50.264Z,99732.11
2019-03-05T19:35:18.562Z,99733.10
2019-03-05T19:37:47.658Z,99740.13
2019-03-05T19:40:19.265Z,99732.93
2019-03-05T19:42:47.721Z,99725.75
2019-03-05T19:45:15.944Z,99729.19
2019-03-05T19:47:44.337Z,99727.23
2019-03-05T19:50:14.948Z,99732.64
2019-03-05T19:52:43.413Z,99727.91
2019-03-05T19:55:14.323Z,99740.16
2019-03-05T19:57:42.375Z,99738.54
2019-03-05T20:00:25.758Z,99743.59
2019-03-05T20:02:54.332Z,99749.14
2019-03-05T20:05:22.828Z,99742.61
2019-03-05T20:07:50.794Z,99746.84
2019-03-05T20:10:19.952Z,99745.54
2019-03-05T20:12:49.113Z,99744.23
2019-03-05T20:15:17.206Z,99748.47
2019-03-05T20:17:45.907Z,99753.20
2019-03-05T20:20:15.630Z,99746.17
2019-03-05T20:22:44.225Z,99745.22
2019-03-05T20:25:15.412Z,99740.63
2019-03-05T20:27:43.562Z,99745.05
2019-03-05T20:30:16.118Z,99742.11
2019-03-05T20:32:46.310Z,99748.82
2019-03-05T20:35:15.035Z,99748.16
2019-03-05T20:37:43.753Z,99750.94
2019-03-05T20:40:14.335Z,99757.02
2019-03-05T20:42:43.091Z,99760.27
2019-03-05T20:45:15.751Z,99751.78
2019-03-05T20:47:43.919Z,99758.98
2019-03-05T20:50:12.823Z,99755.06
2019-03-05T20:52:40.994Z,99756.05
2019-03-05T20:55:12.221Z,99750.82
2019-03-05T20:57:40.522Z,99753.93
2019-03-05T21:00:21.963Z,99751.95
2019-03-05T21:02:51.545Z,99759.80
2019-03-05T21:05:21.009Z,99746.90
2019-03-05T21:07:49.051Z,99749.19
2019-03-05T21:10:17.325Z,99744.63
2019-03-05T21:12:47.492Z,99746.57
2019-03-05T21:15:15.905Z,99742.33
2019-03-05T21:17:45.343Z,99739.89
2019-03-05T21:20:14.062Z,99731.91
2019-03-05T21:22:43.484Z,99728.09
2019-03-05T21:25:12.420Z,99722.55
2019-03-05T21:27:41.449Z,99722.72
2019-03-05T21:30:13.798Z,99723.70
2019-03-05T21:32:42.389Z,99721.59
2019-03-05T21:35:10.935Z,99718.48
2019-03-05T21:37:40.948Z,99719.78
2019-03-05T21:40:16.386Z,99714.09
2019-03-05T21:42:44.900Z,99712.30
2019-03-05T21:45:17.169Z,99716.70
2019-03-05T21:47:45.459Z,99712.47
2019-03-05T21:50:14.481Z,99708.36
2019-03-05T21:52:42.548Z,99705.61
2019-03-05T21:55:13.107Z,99708.39
2019-03-05T21:57:41.640Z,99706.09
2019-03-05T22:00:14.373Z,99706.59
2019-03-05T22:02:44.326Z,99706.27
2019-03-05T22:05:14.138Z,99699.91
2019-03-05T22:07:42.393Z,99705.45
2019-03-05T22:10:14.155Z,99703.50
2019-03-05T22:12:43.402Z,99702.83
2019-03-05T22:15:13.962Z,99703.81
2019-03-05T22:17:42.077Z,99704.48
2019-03-05T22:20:13.648Z,99708.55
2019-03-05T22:22:41.697Z,99705.13
2019-03-05T22:25:12.406Z,99706.11
2019-03-05T22:27:40.861Z,99706.92
2019-03-05T22:30:16.356Z,99707.41
2019-03-05T22:32:44.695Z,99705.30
2019-03-05T22:35:15.086Z,99707.41
2019-03-05T22:37:43.237Z,99706.60
2019-03-05T22:40:11.900Z,99705.13
2019-03-05T22:42:40.095Z,99696.16
2019-03-05T22:45:12.734Z,99692.73
2019-03-05T22:47:40.807Z,99694.03
2019-03-05T22:50:09.593Z,99688.00
2019-03-05T22:52:38.967Z,99697.63
2019-03-05T22:55:07.896Z,99694.34
2019-03-05T22:57:37.128Z,99698.44
2019-03-05T23:00:11.744Z,99694.20
2019-03-05T23:02:40.459Z,99687.34
2019-03-05T23:05:09.620Z,99689.28
2019-03-05T23:07:39.957Z,99688.83
2019-03-05T23:10:11.247Z,99688.47
2019-03-05T23:12:39.642Z,99686.35
2019-03-05T23:15:09.053Z,99688.15
2019-03-05T23:17:37.974Z,99688.15
2019-03-05T23:20:07.224Z,99683.59
2019-03-05T23:22:35.514Z,99681.47
2019-03-05T23:25:04.394Z,99682.45
2019-03-05T23:27:35.839Z,99672.50
2019-03-05T23:30:07.992Z,99671.34
2019-03-05T23:32:37.570Z,99669.56
2019-03-05T23:35:07.431Z,99663.53
2019-03-05T23:37:36.957Z,99664.34
2019-03-05T23:40:05.266Z,99667.94
2019-03-05T23:42:33.638Z,99667.27
2019-03-05T23:45:01.688Z,99667.11
2019-03-05T23:47:30.109Z,99664.02
2019-03-05T23:49:58.165Z,99651.80
2019-03-05T23:52:26.351Z,99652.28
2019-03-05T23:54:54.754Z,99653.59
2019-03-05T23:57:23.186Z,99649.49
2019-03-05T23:59:52.768Z,99649.84
